createdAt,value
2023-05-08T00:01:36.610Z,101299.58
2023-05-08T00:04:04.961Z,101303.34
2023-05-08T00:06:32.840Z,101303.41
2023-05-08T00:09:00.516Z,101304.24
2023-05-08T00:11:28.121Z,101309.23
2023-05-08T00:13:55.734Z,101311.16
2023-05-08T00:16:23.425Z,101310.30
2023-05-08T00:18:53.514Z,101308.41
2023-05-08T00:21:21.158Z,101311.09
2023-05-08T00:23:48.760Z,101311.25
2023-05-08T00:26:16.357Z,101311.79
2023-05-08T00:28:43.978Z,101315.88
2023-05-08T00:31:11.864Z,101320.40
2023-05-08T00:33:39.894Z,101322.00
2023-05-08T00:36:07.688Z,101322.91
2023-05-08T00:38:36.872Z,101319.64
2023-05-08T00:41:04.608Z,101323.65
2023-05-08T00:43:33.567Z,101323.39
2023-05-08T00:46:01.846Z,101326.09
2023-05-08T00:48:34.778Z,101325.80
2023-05-08T00:51:05.287Z,101325.38
2023-05-08T00:53:36.015Z,101320.31
2023-05-08T00:56:05.148Z,101320.96
2023-05-08T00:58:33.536Z,101323.59
2023-05-08T01:01:01.430Z,101329.63
2023-05-08T01:03:29.928Z,101334.16
2023-05-08T01:05:57.825Z,101340.23
2023-05-08T01:08:25.558Z,101340.12
2023-05-08T01:11:25.875Z,101341.95
2023-05-08T01:14:25.778Z,101345.71
2023-05-08T01:17:12.059Z,101343.27
2023-05-08T01:20:15.703Z,101343.58
2023-05-08T01:23:14.594Z,101348.64
2023-05-08T01:26:11.557Z,101352.50
2023-05-08T01:29:11.264Z,101352.91
2023-05-08T01:32:00.855Z,101355.90
2023-05-08T01:34:33.604Z,101355.49
2023-05-08T01:37:05.247Z,101355.87
2023-05-08T01:39:48.859Z,101360.96
2023-05-08T01:42:22.432Z,101362.64
2023-05-08T01:45:00.033Z,101363.77
2023-05-08T01:47:30.930Z,101365.52
2023-05-08T01:50:17.683Z,101367.13
2023-05-08T01:52:50.321Z,101375.57
2023-05-08T01:55:30.521Z,101380.61
2023-05-08T01:57:59.787Z,101380.02
2023-05-08T02:00:31.262Z,101378.12
2023-05-08T02:03:00.598Z,101379.44
2023-05-08T02:05:29.233Z,101380.96
2023-05-08T02:07:58.545Z,101383.92
2023-05-08T02:10:28.415Z,101382.54
2023-05-08T02:12:58.681Z,101380.69
2023-05-08T02:15:29.091Z,101382.31
2023-05-08T02:17:59.222Z,101383.45
2023-05-08T02:20:28.768Z,101392.98
2023-05-08T02:22:57.600Z,101394.92
2023-05-08T02:25:25.981Z,101395.76
2023-05-08T02:27:55.381Z,101398.83
2023-05-08T02:30:26.152Z,101400.11
2023-05-08T02:32:58.262Z,101401.81
2023-05-08T02:35:30.926Z,101403.66
2023-05-08T02:38:00.619Z,101406.14
2023-05-08T02:40:29.614Z,101411.05
2023-05-08T02:42:57.748Z,101414.06
2023-05-08T02:45:32.592Z,101415.98
2023-05-08T02:48:11.998Z,101415.21
2023-05-08T02:51:19.537Z,101412.16
2023-05-08T02:54:06.956Z,101413.55
2023-05-08T02:56:44.057Z,101416.13
2023-05-08T02:59:22.157Z,101418.79
2023-05-08T03:02:04.275Z,101413.25
2023-05-08T03:04:37.934Z,101419.13
2023-05-08T03:07:06.474Z,101421.47
2023-05-08T03:09:44.345Z,101418.91
2023-05-08T03:12:23.714Z,101420.11
2023-05-08T03:15:04.758Z,101424.68
2023-05-08T03:17:35.521Z,101427.38
2023-05-08T03:20:07.031Z,101429.54
2023-05-08T03:22:36.949Z,101431.02
2023-05-08T03:25:09.060Z,101434.73
2023-05-08T03:27:39.996Z,101435.02
2023-05-08T03:30:09.801Z,101436.94
2023-05-08T03:32:41.265Z,101440.61
2023-05-08T03:35:10.176Z,101443.11
2023-05-08T03:37:38.204Z,101445.22
2023-05-08T03:40:08.206Z,101446.87
2023-05-08T03:42:36.407Z,101444.39
2023-05-08T03:45:06.560Z,101442.20
2023-05-08T03:47:36.362Z,101435.73
2023-05-08T03:50:05.093Z,101437.94
2023-05-08T03:52:34.651Z,101443.48
2023-05-08T03:55:02.599Z,101444.47
2023-05-08T03:57:40.253Z,101444.27
2023-05-08T04:00:21.784Z,101447.13
2023-05-08T04:03:01.028Z,101447.05
2023-05-08T04:05:37.593Z,101445.65
2023-05-08T04:08:37.792Z,101451.82
2023-05-08T04:11:21.718Z,101450.05
2023-05-08T04:13:54.171Z,101455.05
2023-05-08T04:16:27.593Z,101454.27
2023-05-08T04:19:02.438Z,101458.45
2023-05-08T04:21:35.405Z,101454.34
2023-05-08T04:24:07.583Z,101461.95
2023-05-08T04:26:36.003Z,101464.45
2023-05-08T04:29:06.200Z,101467.88
2023-05-08T04:31:35.749Z,101470.66
2023-05-08T04:34:04.236Z,101472.90
2023-05-08T04:36:33.842Z,101478.92
2023-05-08T04:39:01.767Z,101479.55
2023-05-08T04:41:29.917Z,101478.16
2023-05-08T04:43:57.733Z,101481.10
2023-05-08T04:46:25.674Z,101485.60
2023-05-08T04:48:53.567Z,101486.85
2023-05-08T04:51:21.219Z,101489.67
2023-05-08T04:53:49.164Z,101492.58
2023-05-08T04:56:16.879Z,101500.67
2023-05-08T04:58:44.683Z,101499.67
2023-05-08T05:01:12.482Z,101503.31
2023-05-08T05:03:40.432Z,101503.73
2023-05-08T05:06:09.811Z,101505.01
2023-05-08T05:08:37.584Z,101511.75
2023-05-08T05:11:05.714Z,101515.09
2023-05-08T05:13:33.820Z,101514.90
2023-05-08T05:16:01.751Z,101519.16
2023-05-08T05:18:32.367Z,101517.45
2023-05-08T05:21:03.364Z,101517.96
2023-05-08T05:23:31.537Z,101520.07
2023-05-08T05:25:59.336Z,101520.54
2023-05-08T05:28:27.740Z,101526.21
2023-05-08T05:30:55.714Z,101527.83
2023-05-08T05:33:23.392Z,101531.41
2023-05-08T05:35:51.569Z,101534.21
2023-05-08T05:38:19.617Z,101530.83
2023-05-08T05:40:47.333Z,101535.91
2023-05-08T05:43:15.106Z,101538.05
2023-05-08T05:45:42.909Z,101537.67
2023-05-08T05:48:11.332Z,101538.80
2023-05-08T05:50:39.108Z,101541.52
2023-05-08T05:53:06.799Z,101542.40
2023-05-08T05:55:35.530Z,101545.14
2023-05-08T05:58:03.393Z,101542.05
2023-05-08T06:00:31.538Z,101541.05
2023-05-08T06:02:59.768Z,101540.80
2023-05-08T06:05:28.647Z,101545.11
2023-05-08T06:07:57.225Z,101546.30
2023-05-08T06:10:29.811Z,101547.70
2023-05-08T06:12:59.101Z,101541.29
2023-05-08T06:15:27.104Z,101542.93
2023-05-08T06:17:55.254Z,101544.59
2023-05-08T06:20:26.255Z,101547.20
2023-05-08T06:22:54.700Z,101550.38
2023-05-08T06:25:23.136Z,101546.48
2023-05-08T06:28:24.430Z,101546.05
2023-05-08T06:30:55.443Z,101546.86
2023-05-08T06:33:26.797Z,101548.48
2023-05-08T06:35:55.690Z,101550.97
2023-05-08T06:38:23.363Z,101553.58
2023-05-08T06:40:51.011Z,101552.54
2023-05-08T06:43:18.685Z,101553.72
2023-05-08T06:45:49.189Z,101556.63
2023-05-08T06:48:18.380Z,101554.78
2023-05-08T06:50:46.770Z,101553.43
2023-05-08T06:53:14.354Z,101552.32
2023-05-08T06:55:45.278Z,101556.17
2023-05-08T06:58:13.162Z,101558.05
2023-05-08T07:00:42.498Z,101560.63
2023-05-08T07:03:10.653Z,101561.31
2023-05-08T07:05:38.426Z,101563.23
2023-05-08T07:08:06.107Z,101562.19
2023-05-08T07:10:33.724Z,101565.89
2023-05-08T07:13:01.582Z,101567.81
2023-05-08T07:15:32.113Z,101566.52
2023-05-08T07:18:00.148Z,101567.81
2023-05-08T07:20:28.305Z,101569.54
2023-05-08T07:22:55.922Z,101571.10
2023-05-08T07:25:23.631Z,101572.61
2023-05-08T07:27:51.438Z,101571.23
2023-05-08T07:30:19.713Z,101573.07
2023-05-08T07:32:48.511Z,101571.91
2023-05-08T07:35:16.520Z,101575.69
2023-05-08T07:37:44.840Z,101576.83
2023-05-08T07:40:12.569Z,101573.52
2023-05-08T07:42:42.235Z,101575.16
2023-05-08T07:45:11.677Z,101573.15
2023-05-08T07:47:49.162Z,101572.28
2023-05-08T07:50:16.819Z,101570.48
2023-05-08T07:52:45.066Z,101572.48
2023-05-08T07:55:13.648Z,101566.50
2023-05-08T07:57:42.525Z,101566.83
2023-05-08T08:00:14.862Z,101567.73
2023-05-08T08:02:43.892Z,101565.45
2023-05-08T08:05:13.144Z,101567.38
2023-05-08T08:07:41.123Z,101562.10
2023-05-08T08:10:09.031Z,101559.89
2023-05-08T08:12:37.089Z,101556.32
2023-05-08T08:15:05.501Z,101555.85
2023-05-08T08:17:33.323Z,101550.42
2023-05-08T08:20:01.190Z,101550.37
2023-05-08T08:22:29.024Z,101547.95
2023-05-08T08:25:00.781Z,101549.35
2023-05-08T08:27:29.514Z,101545.94
2023-05-08T08:30:12.152Z,101548.30
2023-05-08T08:32:43.463Z,101543.64
2023-05-08T08:35:11.916Z,101540.45
2023-05-08T08:37:40.109Z,101543.88
2023-05-08T08:40:08.362Z,101541.73
2023-05-08T08:42:36.345Z,101542.08
2023-05-08T08:45:04.929Z,101536.73
2023-05-08T08:47:41.063Z,101537.01
2023-05-08T08:50:14.720Z,101536.06
2023-05-08T08:53:04.895Z,101533.52
2023-05-08T08:55:35.765Z,101534.02
2023-05-08T08:58:07.725Z,101532.16
2023-05-08T09:00:37.168Z,101527.38
2023-05-08T09:03:07.911Z,101527.59
2023-05-08T09:05:36.218Z,101524.60
2023-05-08T09:08:05.383Z,101522.34
2023-05-08T09:10:36.328Z,101523.88
2023-05-08T09:13:05.429Z,101522.59
2023-05-08T09:15:33.688Z,101525.73
2023-05-08T09:18:05.333Z,101519.80
2023-05-08T09:20:33.458Z,101523.66
2023-05-08T09:23:02.938Z,101528.00
2023-05-08T09:25:50.499Z,101522.48
2023-05-08T09:28:22.776Z,101529.33
2023-05-08T09:30:59.079Z,101523.17
2023-05-08T09:33:31.160Z,101519.77
2023-05-08T09:35:59.273Z,101514.91
2023-05-08T09:38:35.668Z,101512.41
2023-05-08T09:41:11.527Z,101505.48
2023-05-08T09:43:59.784Z,101506.38
2023-05-08T09:46:27.537Z,101502.29
2023-05-08T09:48:57.776Z,101499.36
2023-05-08T09:51:36.726Z,101498.61
2023-05-08T09:54:17.778Z,101501.19
2023-05-08T09:56:46.062Z,101500.35
2023-05-08T09:59:33.316Z,101499.24
2023-05-08T10:02:10.403Z,101494.04
2023-05-08T10:04:38.215Z,101493.83
2023-05-08T10:07:05.959Z,101485.21
2023-05-08T10:09:43.026Z,101479.42
2023-05-08T10:12:15.114Z,101483.13
2023-05-08T10:14:46.078Z,101485.98
2023-05-08T10:17:18.890Z,101484.56
2023-05-08T10:19:50.194Z,101484.83
2023-05-08T10:22:21.256Z,101480.37
2023-05-08T10:24:52.466Z,101476.68
2023-05-08T10:27:30.322Z,101474.80
2023-05-08T10:30:02.072Z,101473.89
2023-05-08T10:32:37.534Z,101475.73
2023-05-08T10:35:08.343Z,101476.69
2023-05-08T10:37:36.759Z,101469.09
2023-05-08T10:40:06.038Z,101465.69
2023-05-08T10:42:37.505Z,101463.44
2023-05-08T10:45:06.407Z,101461.68
2023-05-08T10:47:48.690Z,101455.98
2023-05-08T10:50:22.497Z,101456.91
2023-05-08T10:52:54.759Z,101454.06
2023-05-08T10:55:30.814Z,101447.78
2023-05-08T10:58:30.495Z,101440.75
2023-05-08T11:01:00.908Z,101440.95
2023-05-08T11:03:32.611Z,101438.55
2023-05-08T11:06:03.833Z,101436.73
2023-05-08T11:08:32.417Z,101433.55
2023-05-08T11:11:00.258Z,101430.01
2023-05-08T11:13:30.721Z,101431.64
2023-05-08T11:15:58.550Z,101425.74
2023-05-08T11:18:32.538Z,101421.50
2023-05-08T11:21:16.108Z,101423.14
2023-05-08T11:23:43.788Z,101419.14
2023-05-08T11:26:11.419Z,101414.49
2023-05-08T11:28:54.960Z,101410.58
2023-05-08T11:31:23.467Z,101414.42
2023-05-08T11:33:53.964Z,101409.02
2023-05-08T11:36:24.477Z,101414.39
2023-05-08T11:39:12.529Z,101410.73
2023-05-08T11:41:40.859Z,101412.48
2023-05-08T11:44:19.741Z,101414.96
2023-05-08T11:46:53.575Z,101407.21
2023-05-08T11:49:29.746Z,101409.46
2023-05-08T11:51:59.445Z,101409.14
2023-05-08T11:54:30.677Z,101407.65
2023-05-08T11:56:59.603Z,101404.98
2023-05-08T11:59:27.430Z,101404.55
2023-05-08T12:04:26.079Z,101404.89
2023-05-08T12:06:58.778Z,101397.25
2023-05-08T12:09:27.038Z,101392.07
2023-05-08T12:11:58.113Z,101392.27
2023-05-08T12:14:25.859Z,101394.30
2023-05-08T12:16:53.602Z,101393.64
2023-05-08T12:19:21.538Z,101392.47
2023-05-08T12:21:49.557Z,101385.77
2023-05-08T12:24:22.786Z,101378.60
2023-05-08T12:26:55.337Z,101375.08
2023-05-08T12:29:26.127Z,101381.73
2023-05-08T12:31:54.218Z,101379.54
2023-05-08T12:34:22.535Z,101375.75
2023-05-08T12:37:02.204Z,101368.98
2023-05-08T12:39:34.988Z,101373.32
2023-05-08T12:42:02.655Z,101369.72
2023-05-08T12:44:30.338Z,101363.52
2023-05-08T12:46:58.651Z,101361.30
2023-05-08T12:49:28.807Z,101357.14
2023-05-08T12:52:13.534Z,101348.73
2023-05-08T12:54:48.717Z,101348.05
2023-05-08T12:57:18.864Z,101350.28
2023-05-08T12:59:46.988Z,101350.78
2023-05-08T13:02:21.273Z,101340.61
2023-05-08T13:04:55.813Z,101341.40
2023-05-08T13:07:23.642Z,101336.81
2023-05-08T13:10:04.359Z,101338.23
2023-05-08T13:12:32.042Z,101333.11
2023-05-08T13:15:00.368Z,101330.73
2023-05-08T13:17:28.070Z,101327.19
2023-05-08T13:19:55.882Z,101325.39
2023-05-08T13:22:26.653Z,101319.02
2023-05-08T13:24:54.487Z,101308.11
2023-05-08T13:27:22.981Z,101302.75
2023-05-08T13:29:50.646Z,101299.09
2023-05-08T13:32:18.343Z,101297.85
2023-05-08T13:34:50.410Z,101296.34
2023-05-08T13:37:20.159Z,101291.22
2023-05-08T13:39:47.798Z,101289.69
2023-05-08T13:42:15.434Z,101287.10
2023-05-08T13:44:43.676Z,101279.55
2023-05-08T13:47:11.431Z,101269.34
2023-05-08T13:49:39.247Z,101267.58
2023-05-08T13:52:07.152Z,101264.38
2023-05-08T13:54:34.768Z,101261.02
2023-05-08T13:57:02.695Z,101259.20
2023-05-08T13:59:31.357Z,101257.02
2023-05-08T14:01:58.992Z,101247.38
2023-05-08T14:04:26.752Z,101245.24
2023-05-08T14:06:54.371Z,101239.16
2023-05-08T14:09:22.150Z,101230.23
2023-05-08T14:11:49.801Z,101225.48
2023-05-08T14:14:17.430Z,101222.15
2023-05-08T14:16:45.101Z,101223.07
2023-05-08T14:19:12.740Z,101216.79
2023-05-08T14:21:40.639Z,101218.02
2023-05-08T14:24:09.004Z,101214.94
2023-05-08T14:26:38.000Z,101209.92
2023-05-08T14:29:05.642Z,101213.27
2023-05-08T14:31:33.288Z,101212.57
2023-05-08T14:34:01.011Z,101209.00
2023-05-08T14:36:28.615Z,101204.02
2023-05-08T14:38:56.275Z,101205.98
2023-05-08T14:41:28.715Z,101199.25
2023-05-08T14:43:57.564Z,101191.11
2023-05-08T14:46:25.731Z,101190.45
2023-05-08T14:48:54.293Z,101189.52
2023-05-08T14:51:22.655Z,101184.56
2023-05-08T14:53:51.041Z,101180.80
2023-05-08T14:56:19.189Z,101176.87
2023-05-08T14:58:47.192Z,101177.21
2023-05-08T15:01:15.073Z,101173.22
2023-05-08T15:03:42.792Z,101172.24
2023-05-08T15:06:10.506Z,101169.56
2023-05-08T15:08:38.172Z,101164.29
2023-05-08T15:11:05.822Z,101163.18
2023-05-08T15:13:33.572Z,101163.63
2023-05-08T15:16:01.406Z,101157.85
2023-05-08T15:18:29.124Z,101157.23
2023-05-08T15:20:57.984Z,101155.73
2023-05-08T15:23:26.546Z,101158.63
2023-05-08T15:25:54.196Z,101156.66
2023-05-08T15:28:21.774Z,101153.14
2023-05-08T15:30:49.430Z,101151.23
2023-05-08T15:33:17.087Z,101144.54
2023-05-08T15:35:44.729Z,101145.85
2023-05-08T15:38:12.396Z,101144.29
2023-05-08T15:40:40.137Z,101141.33
2023-05-08T15:43:07.799Z,101141.78
2023-05-08T15:45:35.512Z,101135.08
2023-05-08T15:48:03.823Z,101139.23
2023-05-08T15:50:31.610Z,101130.70
2023-05-08T15:53:00.037Z,101130.11
2023-05-08T15:55:27.687Z,101125.95
2023-05-08T15:57:55.341Z,101127.46
2023-05-08T16:00:25.095Z,101118.53
2023-05-08T16:02:54.996Z,101114.89
2023-05-08T16:05:22.801Z,101116.44
2023-05-08T16:07:51.545Z,101115.59
2023-05-08T16:10:19.274Z,101114.00
2023-05-08T16:12:47.283Z,101116.32
2023-05-08T16:15:15.218Z,101112.88
2023-05-08T16:17:43.117Z,101110.73
2023-05-08T16:20:11.659Z,101107.42
2023-05-08T16:22:39.273Z,101108.33
2023-05-08T16:25:07.422Z,101109.04
2023-05-08T16:27:35.116Z,101105.73
2023-05-08T16:30:02.785Z,101105.05
2023-05-08T16:32:30.771Z,101106.38
2023-05-08T16:34:58.685Z,101103.37
2023-05-08T16:37:27.851Z,101105.95
2023-05-08T16:39:55.836Z,101103.52
2023-05-08T16:42:23.510Z,101104.91
2023-05-08T16:44:51.160Z,101114.08
2023-05-08T16:47:18.765Z,101113.42
2023-05-08T16:49:46.382Z,101117.58
2023-05-08T16:52:14.295Z,101116.80
2023-05-08T16:54:42.008Z,101120.36
2023-05-08T16:57:09.684Z,101116.11
2023-05-08T16:59:37.362Z,101117.92
2023-05-08T17:02:05.190Z,101118.83
2023-05-08T17:04:33.232Z,101115.34
2023-05-08T17:07:00.959Z,101119.27
2023-05-08T17:09:28.908Z,101123.44
2023-05-08T17:11:58.187Z,101119.98
2023-05-08T17:14:25.839Z,101118.20
2023-05-08T17:16:53.512Z,101123.08
2023-05-08T17:19:21.237Z,101126.28
2023-05-08T17:21:48.877Z,101130.14
2023-05-08T17:24:16.752Z,101129.05
2023-05-08T17:26:44.358Z,101127.59
2023-05-08T17:29:11.961Z,101125.17
2023-05-08T17:31:39.653Z,101119.69
2023-05-08T17:34:07.396Z,101117.73
2023-05-08T17:36:35.429Z,101122.98
2023-05-08T17:39:03.419Z,101122.45
2023-05-08T17:41:31.078Z,101123.77
2023-05-08T17:43:59.095Z,101129.39
2023-05-08T17:46:26.790Z,101128.86
2023-05-08T17:48:54.441Z,101131.64
2023-05-08T17:51:22.314Z,101133.52
2023-05-08T17:53:49.970Z,101136.98
2023-05-08T17:56:20.374Z,101138.63
2023-05-08T17:58:48.090Z,101139.39
2023-05-08T18:01:16.020Z,101145.77
2023-05-08T18:03:45.063Z,101149.94
2023-05-08T18:06:17.742Z,101153.94
2023-05-08T18:08:46.185Z,101156.70
2023-05-08T18:11:22.365Z,101158.52
2023-05-08T18:13:51.734Z,101158.58
2023-05-08T18:16:21.160Z,101160.77
2023-05-08T18:18:49.802Z,101166.76
2023-05-08T18:21:17.610Z,101169.55
2023-05-08T18:23:45.259Z,101175.51
2023-05-08T18:26:14.579Z,101177.02
2023-05-08T18:28:42.941Z,101178.85
2023-05-08T18:31:11.701Z,101185.77
2023-05-08T18:33:39.418Z,101183.42
2023-05-08T18:36:07.467Z,101186.42
2023-05-08T18:38:36.306Z,101192.70
2023-05-08T18:41:05.113Z,101196.30
2023-05-08T18:43:33.137Z,101198.70
2023-05-08T18:46:17.579Z,101203.61
2023-05-08T18:48:46.370Z,101201.58
2023-05-08T18:51:14.002Z,101209.48
2023-05-08T18:53:41.634Z,101211.99
2023-05-08T18:56:10.298Z,101216.62
2023-05-08T18:58:38.141Z,101214.23
2023-05-08T19:01:06.191Z,101218.00
2023-05-08T19:03:34.037Z,101220.56
2023-05-08T19:06:01.711Z,101221.70
2023-05-08T19:08:29.595Z,101222.36
2023-05-08T19:10:57.205Z,101221.58
2023-05-08T19:13:25.075Z,101223.54
2023-05-08T19:15:54.121Z,101221.98
2023-05-08T19:18:21.902Z,101226.14
2023-05-08T19:20:49.559Z,101232.77
2023-05-08T19:23:17.655Z,101232.02
2023-05-08T19:25:45.324Z,101231.82
2023-05-08T19:28:13.005Z,101229.11
2023-05-08T19:30:40.875Z,101224.09
2023-05-08T19:33:08.502Z,101227.73
2023-05-08T19:35:36.116Z,101226.64
2023-05-08T19:38:03.748Z,101231.25
2023-05-08T19:40:31.853Z,101232.80
2023-05-08T19:43:01.005Z,101235.66
2023-05-08T19:45:28.710Z,101240.31
2023-05-08T19:47:56.356Z,101239.78
2023-05-08T19:50:24.117Z,101240.05
2023-05-08T19:52:51.871Z,101236.45
2023-05-08T19:55:20.159Z,101236.37
2023-05-08T19:57:47.806Z,101235.35
2023-05-08T20:00:15.913Z,101233.53
2023-05-08T20:02:43.780Z,101231.56
2023-05-08T20:05:21.819Z,101235.02
2023-05-08T20:07:50.886Z,101232.39
2023-05-08T20:10:18.671Z,101232.22
2023-05-08T20:12:46.316Z,101234.16
2023-05-08T20:15:14.367Z,101236.09
2023-05-08T20:17:42.449Z,101237.34
2023-05-08T20:20:11.637Z,101239.84
2023-05-08T20:22:39.496Z,101241.19
2023-05-08T20:25:07.404Z,101238.45
2023-05-08T20:27:35.142Z,101239.57
2023-05-08T20:30:03.039Z,101238.48
2023-05-08T20:32:30.704Z,101242.22
2023-05-08T20:34:58.429Z,101239.57
2023-05-08T20:37:26.052Z,101242.19
2023-05-08T20:39:53.854Z,101241.59
2023-05-08T20:42:21.482Z,101248.95
2023-05-08T20:44:49.090Z,101244.07
2023-05-08T20:47:16.684Z,101244.40
2023-05-08T20:49:44.288Z,101242.56
2023-05-08T20:52:11.894Z,101240.03
2023-05-08T20:54:39.536Z,101242.15
2023-05-08T20:57:07.142Z,101236.98
2023-05-08T20:59:34.832Z,101238.20
2023-05-08T21:02:02.416Z,101243.84
2023-05-08T21:04:30.808Z,101241.79
2023-05-08T21:06:58.770Z,101244.05
2023-05-08T21:09:26.621Z,101242.84
2023-05-08T21:11:54.238Z,101238.98
2023-05-08T21:14:22.210Z,101242.79
2023-05-08T21:16:54.089Z,101244.89
2023-05-08T21:19:22.320Z,101244.83
2023-05-08T21:21:49.928Z,101244.95
2023-05-08T21:24:17.657Z,101248.41
2023-05-08T21:26:45.259Z,101250.05
2023-05-08T21:29:12.844Z,101252.34
2023-05-08T21:31:41.969Z,101252.85
2023-05-08T21:34:09.761Z,101248.46
2023-05-08T21:36:37.384Z,101249.92
2023-05-08T21:39:05.065Z,101245.41
2023-05-08T21:41:32.911Z,101250.95
2023-05-08T21:44:00.885Z,101253.52
2023-05-08T21:46:28.574Z,101251.09
2023-05-08T21:48:56.405Z,101253.09
2023-05-08T21:51:24.000Z,101252.31
2023-05-08T21:53:51.714Z,101258.03
2023-05-08T21:56:19.388Z,101257.70
2023-05-08T21:58:47.106Z,101256.64
2023-05-08T22:01:14.816Z,101258.69
2023-05-08T22:03:42.705Z,101260.50
2023-05-08T22:06:10.421Z,101259.16
2023-05-08T22:08:38.084Z,101259.05
2023-05-08T22:11:05.737Z,101261.67
2023-05-08T22:13:33.379Z,101258.78
2023-05-08T22:16:01.042Z,101262.19
2023-05-08T22:18:28.683Z,101261.84
2023-05-08T22:20:56.287Z,101260.54
2023-05-08T22:23:23.894Z,101259.11
2023-05-08T22:25:51.831Z,101260.04
2023-05-08T22:28:19.558Z,101265.39
2023-05-08T22:30:47.186Z,101265.60
2023-05-08T22:33:14.778Z,101267.55
2023-05-08T22:35:42.384Z,101273.70
2023-05-08T22:38:09.983Z,101278.02
2023-05-08T22:40:38.142Z,101269.94
2023-05-08T22:43:05.750Z,101270.44
2023-05-08T22:45:33.591Z,101269.56
2023-05-08T22:48:01.349Z,101269.71
2023-05-08T22:50:29.046Z,101271.46
2023-05-08T22:52:56.761Z,101272.24
2023-05-08T22:55:24.415Z,101273.73
2023-05-08T22:57:52.128Z,101272.52
2023-05-08T23:00:20.316Z,101276.66
2023-05-08T23:02:48.157Z,101273.89
2023-05-08T23:05:16.369Z,101272.05
2023-05-08T23:07:44.223Z,101275.96
2023-05-08T23:10:11.950Z,101270.47
2023-05-08T23:12:39.839Z,101272.44
2023-05-08T23:15:08.257Z,101274.14
2023-05-08T23:17:35.933Z,101278.21
2023-05-08T23:20:04.861Z,101283.10
2023-05-08T23:22:32.468Z,101281.78
2023-05-08T23:25:00.158Z,101279.98
2023-05-08T23:27:27.997Z,101285.23
2023-05-08T23:29:55.822Z,101280.70
2023-05-08T23:32:23.463Z,101282.02
2023-05-08T23:34:51.096Z,101276.73
2023-05-08T23:37:18.760Z,101281.66
2023-05-08T23:39:46.405Z,101287.55
2023-05-08T23:42:14.021Z,101285.39
2023-05-08T23:44:41.680Z,101286.44
2023-05-08T23:47:09.543Z,101284.73
2023-05-08T23:49:37.154Z,101287.15
2023-05-08T23:52:05.265Z,101288.15
2023-05-08T23:54:32.891Z,101290.52
2023-05-08T23:57:00.486Z,101288.09
2023-05-08T23:59:28.283Z,101286.58
